Time;durP1;ratioP1;P1;durP2;ratioP2;P2;SDS_P1;SDS_P2;PMS_P1;PMS_P2;Temp;Humidity;BMP_temperature;BMP_pressure;BME280_temperature;BME280_humidity;BME280_pressure;Samples;Min_cycle;Max_cycle;Signal;HPM_P1;HPM_P2
2021/07/13 00:01:36;;;;;;;18.20;16.60;;;19.80;99.90;;;;;;5073403;28;20942;-87
2021/07/13 00:04:03;;;;;;;18.93;17.30;;;19.80;99.90;;;;;;5073337;28;20455;-87
2021/07/13 00:06:30;;;;;;;17.63;16.03;;;19.80;99.90;;;;;;5073463;28;20455;-88
2021/07/13 00:08:56;;;;;;;16.70;15.30;;;19.80;99.90;;;;;;5072864;28;21006;-87
2021/07/13 00:11:23;;;;;;;18.90;17.20;;;19.80;99.90;;;;;;5079567;28;20573;-88
2021/07/13 00:13:50;;;;;;;17.03;15.63;;;19.80;99.90;;;;;;5081200;28;20542;-87
2021/07/13 00:16:17;;;;;;;17.40;15.70;;;19.70;99.90;;;;;;5079139;28;20451;-88
2021/07/13 00:18:46;;;;;;;17.87;16.30;;;19.70;99.90;;;;;;5078880;28;20447;-88
2021/07/13 00:21:12;;;;;;;17.83;16.13;;;19.70;99.90;;;;;;5078775;28;20865;-88
2021/07/13 00:23:39;;;;;;;18.40;16.80;;;19.70;99.90;;;;;;5079079;28;20861;-88
2021/07/13 00:26:06;;;;;;;18.50;16.87;;;19.70;99.90;;;;;;5062605;28;20847;-87
2021/07/13 00:28:33;;;;;;;16.10;14.70;;;19.60;99.90;;;;;;5079027;28;20581;-87
2021/07/13 00:31:00;;;;;;;19.27;17.57;;;19.60;99.90;;;;;;5078764;28;21048;-87
2021/07/13 00:33:27;;;;;;;17.17;15.73;;;19.60;99.90;;;;;;5078782;28;20455;-87
2021/07/13 00:35:55;;;;;;;18.20;16.70;;;19.60;99.90;;;;;;5078684;28;20475;-87
2021/07/13 00:38:21;;;;;;;19.43;17.63;;;19.60;99.90;;;;;;5079011;28;20482;-87
2021/07/13 00:40:48;;;;;;;18.20;16.40;;;19.50;99.90;;;;;;5079015;28;20877;-87
2021/07/13 00:43:14;;;;;;;17.10;15.53;;;19.50;99.90;;;;;;5078675;28;20530;-87
2021/07/13 00:45:41;;;;;;;17.37;15.77;;;19.50;99.90;;;;;;5078707;28;20888;-87
2021/07/13 00:48:11;;;;;;;23.93;21.63;;;19.50;99.90;;;;;;5078976;28;20863;-88
2021/07/13 00:50:37;;;;;;;21.50;19.40;;;19.50;99.90;;;;;;5078892;28;20467;-87
2021/07/13 00:53:06;;;;;;;17.43;15.90;;;19.50;99.90;;;;;;5078953;28;20806;-88
2021/07/13 00:55:32;;;;;;;16.50;14.90;;;19.50;99.90;;;;;;5078683;28;20921;-88
2021/07/13 00:57:59;;;;;;;17.40;15.90;;;19.50;99.90;;;;;;5079034;28;20960;-88
2021/07/13 01:00:26;;;;;;;17.43;15.73;;;19.40;99.90;;;;;;5078979;28;20996;-89
2021/07/13 01:02:56;;;;;;;17.83;15.67;;;19.40;99.90;;;;;;5078981;28;20483;-88
2021/07/13 01:05:32;;;;;;;17.07;15.67;;;19.30;99.90;;;;;;5078702;28;20874;-86
2021/07/13 01:08:08;;;;;;;18.73;17.00;;;19.40;99.90;;;;;;5078418;28;21020;-86
2021/07/13 01:10:46;;;;;;;18.33;16.47;;;19.30;99.90;;;;;;5078412;28;20558;-86
2021/07/13 01:13:22;;;;;;;17.57;15.93;;;19.30;99.90;;;;;;5084235;28;20510;-90
2021/07/13 01:15:52;;;;;;;17.33;15.83;;;19.30;99.90;;;;;;5078770;28;20508;-85
2021/07/13 01:18:22;;;;;;;19.53;17.83;;;19.30;99.90;;;;;;5078709;28;20475;-86
2021/07/13 01:21:38;;;;;;;17.90;16.40;;;19.30;99.90;;;;;;5078302;28;20969;-86
2021/07/13 01:24:36;;;;;;;17.60;16.10;;;19.30;99.90;;;;;;5058626;28;20444;-86
2021/07/13 01:27:27;;;;;;;18.90;17.17;;;19.30;99.90;;;;;;5075154;28;20915;-85
2021/07/13 01:29:56;;;;;;;19.23;17.20;;;19.30;99.90;;;;;;5074999;28;20443;-85
2021/07/13 01:32:27;;;;;;;19.47;17.67;;;19.30;99.90;;;;;;5075195;28;20444;-87
2021/07/13 01:34:59;;;;;;;18.37;16.77;;;19.20;99.90;;;;;;5075287;28;20861;-87
2021/07/13 01:37:28;;;;;;;17.47;15.87;;;19.20;99.90;;;;;;5075480;28;20443;-87
2021/07/13 01:39:56;;;;;;;18.50;16.80;;;19.20;99.90;;;;;;5075106;28;20447;-87
2021/07/13 01:42:24;;;;;;;17.20;15.80;;;19.20;99.90;;;;;;5075206;28;20839;-86
2021/07/13 01:44:52;;;;;;;17.50;16.00;;;19.10;99.90;;;;;;5074877;28;20542;-86
2021/07/13 01:47:22;;;;;;;17.40;16.00;;;19.10;99.90;;;;;;5071817;28;20506;-85
2021/07/13 01:49:49;;;;;;;19.20;16.20;;;19.00;99.90;;;;;;5074828;28;20833;-86
2021/07/13 01:52:17;;;;;;;17.80;16.13;;;19.00;99.90;;;;;;5073245;28;20560;-86
2021/07/13 01:54:46;;;;;;;19.80;17.90;;;18.90;99.90;;;;;;5074500;28;20993;-85
2021/07/13 01:57:13;;;;;;;17.80;16.30;;;18.90;99.90;;;;;;5074827;28;20530;-87
2021/07/13 01:59:42;;;;;;;17.60;15.80;;;18.90;99.90;;;;;;5074755;28;21014;-87
2021/07/13 02:02:10;;;;;;;18.43;16.83;;;18.90;99.90;;;;;;5074461;28;20478;-86
2021/07/13 02:04:41;;;;;;;17.77;16.13;;;18.90;99.90;;;;;;5075300;28;20942;-90
2021/07/13 02:07:09;;;;;;;16.77;15.27;;;18.90;99.90;;;;;;5075855;28;20472;-90
2021/07/13 02:09:38;;;;;;;20.43;16.60;;;18.90;99.90;;;;;;5075940;28;20467;-90
2021/07/13 02:12:06;;;;;;;17.83;16.23;;;18.90;99.90;;;;;;5070067;28;20483;-90
2021/07/13 02:14:33;;;;;;;17.13;15.63;;;18.90;99.90;;;;;;5075758;28;20475;-88
2021/07/13 02:16:59;;;;;;;18.63;16.83;;;18.80;99.90;;;;;;5074971;28;20874;-88
2021/07/13 02:19:27;;;;;;;17.83;16.23;;;18.80;99.90;;;;;;5074745;28;20448;-88
2021/07/13 02:21:56;;;;;;;17.80;16.30;;;18.80;99.90;;;;;;5073346;28;20444;-88
2021/07/13 02:24:22;;;;;;;18.80;17.10;;;18.90;99.90;;;;;;5074863;28;20443;-87
2021/07/13 02:26:53;;;;;;;18.27;16.47;;;18.80;99.90;;;;;;5075049;28;20451;-87
2021/07/13 02:29:25;;;;;;;16.70;15.40;;;18.80;99.90;;;;;;5074733;28;20443;-88
2021/07/13 02:31:56;;;;;;;17.57;15.83;;;18.90;99.90;;;;;;5074445;28;20507;-87
2021/07/13 02:34:26;;;;;;;19.63;17.87;;;18.90;99.90;;;;;;5073323;28;20501;-87
2021/07/13 02:36:57;;;;;;;18.57;16.97;;;18.90;99.90;;;;;;5075042;28;20469;-87
2021/07/13 02:39:25;;;;;;;18.07;16.43;;;18.80;99.90;;;;;;5074280;28;20444;-87
2021/07/13 02:41:53;;;;;;;16.83;15.33;;;18.80;99.90;;;;;;5074060;28;20493;-87
2021/07/13 02:44:21;;;;;;;18.30;16.60;;;18.90;99.90;;;;;;5074091;28;20482;-87
2021/07/13 02:46:48;;;;;;;17.50;16.00;;;18.90;99.90;;;;;;5074258;28;20958;-87
2021/07/13 02:49:19;;;;;;;17.53;15.87;;;18.80;99.90;;;;;;5074153;28;20452;-87
2021/07/13 02:51:48;;;;;;;19.33;17.63;;;18.80;99.90;;;;;;5073722;28;20510;-87
2021/07/13 02:54:19;;;;;;;17.97;16.40;;;18.80;99.90;;;;;;5073633;28;20443;-87
2021/07/13 02:56:48;;;;;;;17.77;16.30;;;18.90;99.90;;;;;;5073640;28;20515;-87
2021/07/13 02:59:16;;;;;;;17.63;16.03;;;18.90;99.90;;;;;;5073879;28;20865;-88
2021/07/13 03:01:45;;;;;;;17.30;15.60;;;18.90;99.90;;;;;;5074136;28;20505;-88
2021/07/13 03:04:11;;;;;;;18.33;16.63;;;18.90;99.90;;;;;;5073859;28;20471;-88
2021/07/13 03:06:39;;;;;;;18.03;16.27;;;18.90;99.90;;;;;;5074006;28;20471;-89
2021/07/13 03:09:06;;;;;;;17.30;15.80;;;18.90;99.90;;;;;;5073480;28;20486;-88
2021/07/13 03:11:35;;;;;;;17.57;15.77;;;18.90;99.90;;;;;;5073428;28;20481;-88
2021/07/13 03:14:02;;;;;;;16.90;15.40;;;18.90;99.90;;;;;;5073677;28;20494;-88
2021/07/13 03:16:31;;;;;;;18.20;16.47;;;19.00;99.90;;;;;;5074030;28;20517;-88
2021/07/13 03:18:59;;;;;;;18.00;16.40;;;19.00;99.90;;;;;;5073884;28;20534;-88
2021/07/13 03:21:28;;;;;;;16.37;14.97;;;19.00;99.90;;;;;;5073486;28;20473;-89
2021/07/13 03:23:59;;;;;;;17.73;16.23;;;19.10;99.90;;;;;;5073071;28;21007;-89
2021/07/13 03:26:28;;;;;;;18.10;16.10;;;19.10;99.90;;;;;;5073324;28;20443;-89
2021/07/13 03:28:57;;;;;;;17.30;15.80;;;19.10;99.90;;;;;;5073419;28;20720;-88
2021/07/13 03:31:24;;;;;;;17.67;15.87;;;19.10;99.90;;;;;;5073107;28;20581;-86
2021/07/13 03:33:51;;;;;;;15.43;14.13;;;19.10;99.90;;;;;;5072128;28;20788;-86
2021/07/13 03:36:18;;;;;;;17.63;15.20;;;19.20;99.90;;;;;;5072791;28;20517;-86
2021/07/13 03:38:45;;;;;;;16.97;15.57;;;19.20;99.90;;;;;;5072640;28;20475;-86
2021/07/13 03:41:12;;;;;;;16.30;14.80;;;19.20;99.90;;;;;;5072814;28;20501;-86
2021/07/13 03:43:39;;;;;;;17.37;15.77;;;19.30;99.90;;;;;;5073119;28;20467;-88
2021/07/13 03:46:07;;;;;;;18.17;16.43;;;19.30;99.90;;;;;;5057288;28;20473;-88
2021/07/13 03:48:35;;;;;;;16.63;15.13;;;19.30;99.90;;;;;;5072906;28;20480;-87
2021/07/13 03:51:02;;;;;;;15.80;14.40;;;19.40;99.90;;;;;;5072534;28;20887;-87
2021/07/13 03:53:29;;;;;;;17.03;15.53;;;19.40;99.90;;;;;;5072355;28;20479;-87
2021/07/13 03:55:55;;;;;;;17.40;15.80;;;19.50;99.90;;;;;;5072178;28;20499;-87
2021/07/13 03:58:22;;;;;;;16.60;15.10;;;19.60;99.90;;;;;;5072541;28;20471;-87
2021/07/13 04:00:48;;;;;;;16.60;15.20;;;19.60;99.90;;;;;;5072513;28;20444;-87
2021/07/13 04:03:16;;;;;;;17.07;15.17;;;19.70;99.90;;;;;;5072549;28;20519;-86
2021/07/13 04:05:43;;;;;;;16.50;15.00;;;19.70;99.90;;;;;;5072283;28;20483;-86
2021/07/13 04:08:10;;;;;;;15.33;13.93;;;19.80;99.90;;;;;;5072475;28;20448;-86
2021/07/13 04:10:36;;;;;;;16.90;15.40;;;19.80;99.90;;;;;;5072433;28;20470;-86
2021/07/13 04:13:03;;;;;;;14.93;13.63;;;19.80;99.90;;;;;;5072312;28;20562;-87
2021/07/13 04:15:29;;;;;;;16.30;14.70;;;19.90;99.90;;;;;;5072270;28;20486;-86
2021/07/13 04:17:56;;;;;;;15.47;14.17;;;19.90;99.90;;;;;;5072302;28;20447;-87
2021/07/13 04:20:24;;;;;;;17.07;15.67;;;20.00;99.90;;;;;;5072139;28;20862;-88
2021/07/13 04:22:50;;;;;;;17.43;15.93;;;20.00;99.90;;;;;;5072535;28;20992;-87
2021/07/13 04:25:17;;;;;;;15.47;14.03;;;20.10;99.90;;;;;;5072293;28;20487;-87
2021/07/13 04:27:44;;;;;;;14.97;13.83;;;20.10;99.90;;;;;;5072445;28;20570;-87
2021/07/13 04:30:11;;;;;;;17.60;15.50;;;20.10;99.90;;;;;;5072350;28;20833;-87
2021/07/13 04:32:38;;;;;;;16.50;15.00;;;20.20;99.90;;;;;;5072287;28;20842;-87
2021/07/13 04:35:05;;;;;;;17.00;15.60;;;20.20;99.90;;;;;;5065648;28;20546;-87
2021/07/13 04:37:33;;;;;;;16.70;15.20;;;20.20;99.90;;;;;;5070944;28;20475;-87
2021/07/13 04:40:00;;;;;;;15.50;14.20;;;20.30;99.90;;;;;;5070222;28;20451;-87
2021/07/13 04:42:27;;;;;;;16.63;14.43;;;20.40;99.90;;;;;;5071139;28;20440;-85
2021/07/13 04:44:54;;;;;;;14.80;13.40;;;20.50;99.90;;;;;;5071949;28;20494;-92
2021/07/13 04:47:20;;;;;;;14.20;12.90;;;20.50;99.90;;;;;;5072455;28;20496;-92
2021/07/13 04:49:47;;;;;;;28.77;25.90;;;20.60;99.90;;;;;;5072568;28;20475;-91
2021/07/13 04:52:13;;;;;;;32.37;29.17;;;20.60;99.90;;;;;;5072092;28;20510;-89
2021/07/13 04:54:41;;;;;;;19.43;17.73;;;20.70;99.90;;;;;;5071968;28;20471;-88
2021/07/13 04:57:08;;;;;;;14.13;12.80;;;20.70;99.90;;;;;;5072182;28;20539;-88
2021/07/13 04:59:34;;;;;;;14.27;12.77;;;20.90;99.90;;;;;;5075758;28;20538;-88
2021/07/13 05:02:01;;;;;;;14.30;13.10;;;20.90;99.90;;;;;;5075968;28;20546;-87
2021/07/13 05:04:28;;;;;;;14.10;13.00;;;21.00;99.90;;;;;;5075945;28;20483;-89
2021/07/13 05:06:54;;;;;;;14.73;13.47;;;21.00;99.90;;;;;;5076319;28;20530;-89
2021/07/13 05:09:21;;;;;;;14.40;12.90;;;21.10;99.90;;;;;;5076102;28;20862;-89
2021/07/13 05:11:49;;;;;;;17.93;13.73;;;21.10;99.90;;;;;;5081184;28;20525;-89
2021/07/13 05:14:15;;;;;;;14.23;13.00;;;21.20;99.90;;;;;;5075767;28;20486;-89
2021/07/13 05:16:42;;;;;;;14.20;13.00;;;21.20;99.90;;;;;;5075883;28;20799;-88
2021/07/13 05:19:10;;;;;;;13.57;12.37;;;21.20;99.90;;;;;;5075722;28;20958;-87
2021/07/13 05:21:38;;;;;;;13.77;12.67;;;21.30;99.90;;;;;;5075460;28;21032;-89
2021/07/13 05:24:05;;;;;;;13.37;12.37;;;21.30;99.90;;;;;;5075447;28;20986;-87
2021/07/13 05:26:32;;;;;;;14.57;13.37;;;21.40;99.90;;;;;;5075315;28;20534;-86
2021/07/13 05:29:04;;;;;;;14.03;12.60;;;21.40;99.90;;;;;;5075316;28;20853;-86
2021/07/13 05:31:31;;;;;;;12.67;11.67;;;21.50;99.90;;;;;;5075003;28;20549;-86
2021/07/13 05:33:58;;;;;;;14.17;13.00;;;21.60;99.90;;;;;;5075172;28;20898;-86
2021/07/13 05:36:25;;;;;;;12.87;11.87;;;21.70;99.90;;;;;;5075212;28;20474;-87
2021/07/13 05:38:53;;;;;;;13.33;12.13;;;21.70;99.90;;;;;;5075208;28;20859;-87
2021/07/13 05:41:21;;;;;;;15.83;13.73;;;21.80;99.90;;;;;;5075064;28;20447;-87
2021/07/13 05:43:47;;;;;;;12.03;10.83;;;21.90;99.90;;;;;;5074859;28;20522;-87
2021/07/13 05:46:15;;;;;;;12.43;11.53;;;22.00;99.90;;;;;;5074738;28;20927;-87
2021/07/13 05:48:42;;;;;;;13.60;12.30;;;22.10;99.90;;;;;;5075152;28;20471;-88
2021/07/13 05:51:09;;;;;;;12.53;11.60;;;22.30;99.90;;;;;;5075222;28;20475;-88
2021/07/13 05:53:36;;;;;;;11.90;11.00;;;22.50;99.90;;;;;;5075186;28;20532;-88
2021/07/13 05:56:05;;;;;;;10.70;9.90;;;22.80;99.90;;;;;;5074850;28;20514;-89
2021/07/13 05:58:32;;;;;;;12.43;11.30;;;23.00;99.90;;;;;;5074908;28;20447;-89
2021/07/13 06:00:58;;;;;;;12.37;11.30;;;23.30;99.90;;;;;;5074958;28;20440;-88
2021/07/13 06:03:26;;;;;;;11.30;10.40;;;23.50;99.90;;;;;;5075384;28;20471;-88
2021/07/13 06:05:53;;;;;;;11.40;10.50;;;23.80;99.90;;;;;;5074774;28;20803;-87
2021/07/13 06:08:19;;;;;;;12.57;11.50;;;24.20;99.90;;;;;;5074136;28;20502;-87
2021/07/13 06:10:46;;;;;;;11.30;10.40;;;24.70;99.90;;;;;;5074508;28;20479;-89
2021/07/13 06:13:12;;;;;;;10.70;9.83;;;25.10;99.90;;;;;;5074973;28;20570;-89
2021/07/13 06:15:42;;;;;;;10.30;9.50;;;25.50;99.90;;;;;;5075084;28;20501;-90
2021/07/13 06:18:09;;;;;;;10.50;9.70;;;25.90;99.90;;;;;;5058982;28;20481;-90
2021/07/13 06:20:37;;;;;;;9.17;8.57;;;26.20;99.90;;;;;;5074718;28;20503;-89
2021/07/13 06:23:04;;;;;;;9.30;8.60;;;26.50;99.90;;;;;;5074413;28;20439;-87
2021/07/13 06:25:30;;;;;;;9.67;8.97;;;26.90;99.90;;;;;;5073968;28;20488;-88
2021/07/13 06:27:57;;;;;;;9.60;8.90;;;27.20;99.90;;;;;;5074222;28;20470;-89
2021/07/13 06:30:24;;;;;;;9.73;9.03;;;27.50;99.90;;;;;;5074469;28;20486;-89
2021/07/13 06:32:50;;;;;;;9.43;8.60;;;27.80;99.90;;;;;;5074588;28;20479;-89
2021/07/13 06:35:17;;;;;;;9.90;9.10;;;28.10;99.90;;;;;;5074125;28;20443;-89
2021/07/13 06:37:45;;;;;;;9.50;8.80;;;28.30;99.90;;;;;;5073993;28;20849;-90
2021/07/13 06:40:15;;;;;;;9.07;8.40;;;28.40;99.90;;;;;;5073978;28;20969;-89
2021/07/13 06:42:42;;;;;;;9.00;8.13;;;28.60;99.90;;;;;;5075434;28;20853;-88
2021/07/13 06:45:09;;;;;;;9.30;8.50;;;28.70;99.90;;;;;;5074854;28;21004;-86
2021/07/13 06:47:36;;;;;;;8.17;7.57;;;28.80;99.90;;;;;;5073817;28;20448;-84
2021/07/13 06:50:03;;;;;;;8.97;8.30;;;28.90;99.90;;;;;;5073388;28;20451;-85
2021/07/13 06:52:30;;;;;;;8.87;8.17;;;29.10;99.90;;;;;;5074024;28;20471;-88
2021/07/13 06:55:01;;;;;;;7.60;7.00;;;29.30;99.90;;;;;;5073346;28;20503;-87
2021/07/13 06:57:27;;;;;;;8.03;7.33;;;29.40;99.90;;;;;;5071613;28;20447;-89
2021/07/13 06:59:59;;;;;;;7.50;7.00;;;29.50;99.90;;;;;;5072045;28;20447;-87
2021/07/13 07:02:25;;;;;;;8.20;7.60;;;29.60;99.90;;;;;;5071379;28;20455;-88
2021/07/13 07:04:55;;;;;;;7.97;7.27;;;29.80;99.90;;;;;;5070139;28;20448;-90
2021/07/13 07:07:23;;;;;;;7.23;6.53;;;29.80;99.90;;;;;;5074769;28;20452;-91
2021/07/13 07:09:52;;;;;;;7.13;6.63;;;29.90;99.90;;;;;;5071939;28;20439;-91
2021/07/13 07:12:21;;;;;;;7.20;6.70;;;29.90;99.90;;;;;;5073037;28;20520;-91
2021/07/13 07:14:52;;;;;;;6.90;6.40;;;30.10;99.90;;;;;;5073702;28;20459;-91
2021/07/13 07:17:19;;;;;;;5.90;5.50;;;30.20;99.90;;;;;;5074090;28;20802;-90
2021/07/13 07:19:48;;;;;;;5.53;5.03;;;30.30;99.90;;;;;;5073543;28;20447;-89
2021/07/13 07:22:14;;;;;;;6.07;5.73;;;30.40;99.90;;;;;;5074002;28;20946;-91
2021/07/13 07:24:41;;;;;;;5.77;5.37;;;30.50;99.90;;;;;;5073964;28;20443;-91
2021/07/13 07:27:08;;;;;;;5.33;5.00;;;30.60;99.90;;;;;;5074166;28;20938;-91
2021/07/13 07:29:36;;;;;;;5.90;5.50;;;30.60;99.90;;;;;;5074391;28;20448;-91
2021/07/13 07:32:05;;;;;;;5.10;4.80;;;30.70;99.90;;;;;;5073899;28;20451;-89
2021/07/13 07:34:31;;;;;;;5.67;5.27;;;30.70;99.90;;;;;;5073977;28;20462;-90
2021/07/13 07:36:58;;;;;;;6.37;5.87;;;30.70;99.90;;;;;;5073905;28;20455;-90
2021/07/13 07:39:24;;;;;;;5.67;5.20;;;30.70;99.90;;;;;;5074433;28;20984;-90
2021/07/13 07:41:54;;;;;;;4.97;4.70;;;30.80;99.90;;;;;;5074150;28;20456;-89
2021/07/13 07:44:23;;;;;;;7.50;6.80;;;30.80;99.90;;;;;;5073953;28;20447;-92
2021/07/13 07:46:58;;;;;;;5.67;5.37;;;30.80;99.90;;;;;;5072945;28;21018;-90
2021/07/13 07:52:08;;;;;;;5.87;5.40;;;30.80;99.90;;;;;;5071845;28;20471;-91
2021/07/13 07:55:00;;;;;;;5.87;5.37;;;30.70;99.90;;;;;;5073363;28;20520;-89
2021/07/13 07:57:29;;;;;;;5.40;5.10;;;30.80;99.90;;;;;;5073932;28;20996;-92
2021/07/13 08:00:21;;;;;;;4.30;4.00;;;30.80;99.90;;;;;;5073797;28;20458;-90
2021/07/13 08:02:51;;;;;;;4.80;4.60;;;30.70;99.90;;;;;;5073458;28;20506;-91
2021/07/13 08:05:39;;;;;;;;;;;;;;;;;;;;;
2021/07/13 08:08:17;;;;;;;4.50;4.23;;;30.70;99.90;;;;;;5073545;28;20543;-89
2021/07/13 08:11:10;;;;;;;4.73;4.33;;;30.60;99.90;;;;;;5073456;28;20513;-90
2021/07/13 08:14:04;;;;;;;;;;;;;;;;;;;;;
2021/07/13 08:16:30;;;;;;;4.97;3.93;;;30.70;99.90;;;;;;5069397;28;20446;-91
2021/07/13 08:19:35;;;;;;;;;;;;;;;;;;;;;
2021/07/13 08:22:47;;;;;;;;;;;;;;;;;;;;;
2021/07/13 08:25:18;;;;;;;2.70;2.60;;;30.60;99.90;;;;;;5072994;28;20447;-91
2021/07/13 08:27:47;;;;;;;3.90;3.70;;;30.60;99.90;;;;;;5073361;28;20534;-90
2021/07/13 08:30:55;;;;;;;3.53;3.33;;;30.60;99.90;;;;;;5073018;28;20447;-90
2021/07/13 08:33:37;;;;;;;3.10;2.90;;;30.60;99.90;;;;;;5070166;28;20518;-91
2021/07/13 08:36:11;;;;;;;3.03;2.93;;;30.60;99.90;;;;;;5077058;28;20454;-92
2021/07/13 08:38:48;;;;;;;3.40;3.10;;;30.50;99.90;;;;;;5076954;28;20535;-90
2021/07/13 08:41:19;;;;;;;4.00;3.70;;;30.40;99.90;;;;;;5077164;28;20438;-89
2021/07/13 08:43:52;;;;;;;3.67;3.37;;;30.40;99.90;;;;;;5077292;28;20443;-90
2021/07/13 08:46:20;;;;;;;4.20;3.90;;;30.30;99.90;;;;;;5077233;28;20444;-90
2021/07/13 08:48:53;;;;;;;4.00;3.80;;;30.10;99.90;;;;;;5076979;28;20937;-89
2021/07/13 08:51:23;;;;;;;3.90;3.60;;;30.00;99.90;;;;;;5076980;28;20447;-91
2021/07/13 08:53:51;;;;;;;4.00;3.67;;;29.90;99.90;;;;;;5076841;28;20489;-89
2021/07/13 08:56:28;;;;;;;3.30;3.10;;;29.90;99.90;;;;;;5076560;28;20479;-92
2021/07/13 08:59:03;;;;;;;4.20;3.50;;;29.70;99.90;;;;;;5076577;28;20446;-91
2021/07/13 09:01:54;;;;;;;3.63;3.33;;;29.70;99.90;;;;;;5076632;28;20497;-91
2021/07/13 09:04:36;;;;;;;3.50;2.90;;;29.60;99.90;;;;;;5076153;28;20802;-92
2021/07/13 09:07:11;;;;;;;3.20;3.00;;;29.60;99.90;;;;;;5076481;28;20458;-92
2021/07/13 09:10:00;;;;;;;3.70;3.33;;;29.60;99.90;;;;;;5076395;28;20455;-92
2021/07/13 09:12:50;;;;;;;4.30;2.97;;;29.50;99.90;;;;;;5088496;28;20439;-90
2021/07/13 09:15:24;;;;;;;3.00;2.90;;;29.50;99.90;;;;;;5096625;28;20533;-91
2021/07/13 09:18:04;;;;;;;3.17;2.97;;;29.40;99.90;;;;;;5096488;28;20802;-91
2021/07/13 09:20:53;;;;;;;3.43;3.13;;;29.40;99.90;;;;;;5096658;28;20455;-91
2021/07/13 09:24:05;;;;;;;3.60;3.30;;;29.30;99.90;;;;;;5096239;28;20529;-91
2021/07/13 09:26:42;;;;;;;3.53;3.33;;;29.30;99.90;;;;;;5068434;28;20450;-91
2021/07/13 09:29:39;;;;;;;3.40;3.20;;;29.50;99.90;;;;;;5096214;28;20446;-92
2021/07/13 09:32:43;;;;;;;3.20;3.00;;;29.50;99.90;;;;;;5096117;28;20493;-91
2021/07/13 09:35:13;;;;;;;3.53;3.33;;;29.50;99.90;;;;;;5088763;28;20442;-90
2021/07/13 09:37:43;;;;;;;4.80;3.33;;;29.50;99.90;;;;;;5096600;28;20446;-91
2021/07/13 09:40:13;;;;;;;3.47;3.27;;;29.50;99.90;;;;;;5096402;28;20499;-90
2021/07/13 09:42:48;;;;;;;3.93;3.63;;;29.40;99.90;;;;;;5095961;28;20447;-90
2021/07/13 09:45:21;;;;;;;3.80;3.60;;;29.40;99.90;;;;;;5096162;28;20456;-92
2021/07/13 09:47:48;;;;;;;3.40;3.10;;;29.50;99.90;;;;;;5095957;28;20524;-91
2021/07/13 09:50:34;;;;;;;3.17;2.97;;;29.40;99.90;;;;;;5095685;28;20461;-90
2021/07/13 09:53:04;;;;;;;4.80;3.33;;;29.50;99.90;;;;;;5096150;28;20469;-92
2021/07/13 09:55:31;;;;;;;3.37;3.17;;;29.60;99.90;;;;;;5095802;28;21024;-91
2021/07/13 09:58:16;;;;;;;3.20;3.00;;;29.70;99.90;;;;;;5096106;28;20809;-92
2021/07/13 10:00:50;;;;;;;3.47;3.27;;;29.60;99.90;;;;;;5096260;28;20508;-90
2021/07/13 10:03:18;;;;;;;3.50;3.30;;;29.60;99.90;;;;;;5096081;28;20442;-91
2021/07/13 10:05:50;;;;;;;3.30;3.10;;;29.70;99.90;;;;;;5096355;28;20489;-92
2021/07/13 10:08:19;;;;;;;3.27;3.07;;;29.70;99.90;;;;;;5095936;28;20542;-92
2021/07/13 10:10:47;;;;;;;3.23;3.00;;;29.70;99.90;;;;;;5095367;28;20442;-91
2021/07/13 10:13:15;;;;;;;3.50;3.20;;;29.60;99.90;;;;;;5076946;28;20479;-90
2021/07/13 10:15:48;;;;;;;3.47;3.27;;;29.70;99.90;;;;;;5075515;28;20849;-90
2021/07/13 10:18:14;;;;;;;3.30;3.10;;;29.70;99.90;;;;;;5075706;28;20451;-90
2021/07/13 10:20:45;;;;;;;4.00;2.80;;;29.70;99.90;;;;;;5075333;28;20501;-90
2021/07/13 10:23:14;;;;;;;3.50;3.30;;;29.80;99.90;;;;;;5075172;28;20517;-90
2021/07/13 10:25:42;;;;;;;3.60;3.40;;;29.70;99.90;;;;;;5075084;28;20493;-91
2021/07/13 10:28:09;;;;;;;2.87;2.77;;;29.60;99.90;;;;;;5075588;28;20443;-91
2021/07/13 10:30:38;;;;;;;3.30;3.10;;;29.50;99.90;;;;;;5075287;28;20543;-90
2021/07/13 10:33:29;;;;;;;3.63;3.43;;;29.50;99.90;;;;;;5075230;28;20842;-91
2021/07/13 10:35:58;;;;;;;2.87;2.67;;;29.60;99.90;;;;;;5075060;28;20505;-90
2021/07/13 10:38:26;;;;;;;3.63;2.77;;;29.60;99.90;;;;;;5075255;28;20443;-92
2021/07/13 10:40:56;;;;;;;2.50;2.30;;;29.60;99.90;;;;;;5075226;28;20452;-91
2021/07/13 10:43:26;;;;;;;3.40;3.10;;;29.60;99.90;;;;;;5075048;28;20534;-89
2021/07/13 10:46:10;;;;;;;2.53;2.43;;;29.70;99.90;;;;;;5074919;28;20505;-89
2021/07/13 10:48:39;;;;;;;3.00;2.80;;;29.80;99.90;;;;;;5075308;28;20459;-89
2021/07/13 10:51:07;;;;;;;3.20;3.00;;;30.00;99.90;;;;;;5075880;28;20444;-90
2021/07/13 10:53:39;;;;;;;2.90;2.70;;;30.10;99.90;;;;;;5074978;28;20598;-89
2021/07/13 10:56:09;;;;;;;2.93;2.63;;;30.10;99.90;;;;;;5073334;28;20566;-91
2021/07/13 10:58:50;;;;;;;2.90;2.70;;;30.10;99.90;;;;;;5074328;28;20485;-92
2021/07/13 11:01:21;;;;;;;3.17;2.97;;;29.90;99.90;;;;;;5074918;28;20460;-90
2021/07/13 11:04:09;;;;;;;3.50;3.30;;;29.80;99.90;;;;;;5074443;28;20463;-89
2021/07/13 11:06:49;;;;;;;2.40;2.30;;;29.70;99.90;;;;;;5074688;28;20780;-92
2021/07/13 11:09:40;;;;;;;2.43;2.33;;;29.60;99.90;;;;;;5074615;28;20849;-92
2021/07/13 11:12:18;;;;;;;3.00;2.90;;;29.50;99.90;;;;;;5083415;28;20445;-90
2021/07/13 11:14:57;;;;;;;3.07;2.87;;;29.40;99.90;;;;;;5094495;28;21054;-89
2021/07/13 11:17:27;;;;;;;2.97;2.87;;;29.50;99.90;;;;;;5094286;28;20537;-92
2021/07/13 11:20:10;;;;;;;3.50;3.30;;;29.50;99.90;;;;;;5094479;28;20591;-91
2021/07/13 11:22:47;;;;;;;3.50;3.30;;;29.40;99.90;;;;;;5093965;28;20541;-91
2021/07/13 11:25:29;;;;;;;3.30;3.10;;;29.40;99.90;;;;;;5093870;28;20445;-91
2021/07/13 11:28:04;;;;;;;3.50;3.30;;;29.40;99.90;;;;;;5093818;28;20441;-89
2021/07/13 11:30:34;;;;;;;3.73;3.53;;;29.30;99.90;;;;;;5094141;28;20983;-91
2021/07/13 11:33:11;;;;;;;3.33;2.90;;;29.20;99.90;;;;;;5093952;28;20490;-91
2021/07/13 11:35:40;;;;;;;3.20;3.00;;;29.20;99.90;;;;;;5093801;28;20537;-92
2021/07/13 11:38:08;;;;;;;3.67;3.47;;;29.30;99.90;;;;;;5094288;28;20443;-91
2021/07/13 11:40:44;;;;;;;3.80;3.60;;;29.40;99.90;;;;;;5093756;28;20937;-92
2021/07/13 11:43:29;;;;;;;4.03;3.83;;;29.40;99.90;;;;;;5093133;28;20446;-91
2021/07/13 11:46:12;;;;;;;3.90;3.60;;;29.50;99.90;;;;;;5093856;28;20889;-91
2021/07/13 11:48:39;;;;;;;3.83;3.60;;;29.50;99.90;;;;;;5093715;28;20450;-90
2021/07/13 11:51:09;;;;;;;4.03;3.70;;;29.50;99.90;;;;;;5093553;28;20442;-92
2021/07/13 11:53:56;;;;;;;4.63;4.33;;;29.50;99.90;;;;;;5093622;28;20466;-91
2021/07/13 11:56:26;;;;;;;4.20;4.00;;;29.50;99.90;;;;;;5093459;28;20533;-91
2021/07/13 11:58:53;;;;;;;3.90;3.70;;;29.60;99.90;;;;;;5093693;28;20451;-91
2021/07/13 12:01:21;;;;;;;4.97;4.57;;;29.90;99.90;;;;;;5093905;28;20836;-92
2021/07/13 12:03:52;;;;;;;4.33;4.03;;;30.10;99.90;;;;;;5093681;28;20503;-91
2021/07/13 12:06:29;;;;;;;5.60;5.20;;;30.40;99.90;;;;;;5093440;28;20528;-91
2021/07/13 12:09:12;;;;;;;;;;;;;;;;;;;;;
2021/07/13 12:11:42;;;;;;;4.80;4.40;;;30.50;99.90;;;;;;5087793;28;20579;-90
2021/07/13 12:14:12;;;;;;;4.93;4.53;;;30.60;99.90;;;;;;5073427;28;20536;-93
2021/07/13 12:16:42;;;;;;;4.20;3.90;;;30.60;99.90;;;;;;5073798;28;20538;-90
2021/07/13 12:19:15;;;;;;;4.80;4.40;;;30.70;99.90;;;;;;5073469;28;20455;-89
2021/07/13 12:21:46;;;;;;;5.37;5.07;;;30.70;99.90;;;;;;5073198;28;20451;-92
2021/07/13 12:24:17;;;;;;;5.40;5.10;;;30.70;99.90;;;;;;5073628;28;20863;-92
2021/07/13 12:26:52;;;;;;;5.20;4.90;;;30.70;99.90;;;;;;5073036;28;20473;-89
2021/07/13 12:29:23;;;;;;;5.10;4.80;;;30.80;99.90;;;;;;5072954;28;20443;-91
2021/07/13 12:32:04;;;;;;;5.07;4.67;;;31.00;99.90;;;;;;5072989;28;20451;-89
2021/07/13 12:34:32;;;;;;;5.13;4.87;;;31.10;99.90;;;;;;5072954;28;20822;-89
2021/07/13 12:37:13;;;;;;;5.50;5.10;;;31.40;99.90;;;;;;5073192;28;20513;-89
2021/07/13 12:39:44;;;;;;;5.93;5.50;;;31.70;99.90;;;;;;5072891;28;20447;-88
2021/07/13 12:42:16;;;;;;;5.40;5.00;;;31.90;99.90;;;;;;5073005;28;20451;-90
2021/07/13 12:45:01;;;;;;;5.50;5.00;;;32.20;99.90;;;;;;5072895;28;20841;-90
2021/07/13 12:47:34;;;;;;;5.30;4.90;;;32.20;99.90;;;;;;5073051;28;20442;-91
2021/07/13 12:50:23;;;;;;;5.30;4.90;;;32.30;99.90;;;;;;5073153;28;20950;-89
2021/07/13 12:53:02;;;;;;;5.47;5.07;;;32.50;99.90;;;;;;5073105;28;20888;-91
2021/07/13 12:55:35;;;;;;;5.20;4.83;;;32.50;99.90;;;;;;5072739;28;20486;-90
2021/07/13 12:58:18;;;;;;;4.47;4.17;;;32.60;99.90;;;;;;5073250;28;20454;-89
2021/07/13 13:00:49;;;;;;;6.17;5.77;;;32.60;99.90;;;;;;5073001;28;21001;-90
2021/07/13 13:03:18;;;;;;;4.40;4.10;;;32.70;99.90;;;;;;5072354;28;20513;-90
2021/07/13 13:05:53;;;;;;;4.63;4.43;;;32.80;99.90;;;;;;5072910;28;20490;-89
2021/07/13 13:08:35;;;;;;;4.93;4.47;;;32.80;99.90;;;;;;5072781;28;20455;-90